Time;durP1;ratioP1;P1;durP2;ratioP2;P2;SDS_P1;SDS_P2;PMS_P1;PMS_P2;Temp;Humidity;BMP_temperature;BMP_pressure;BME280_temperature;BME280_humidity;BME280_pressure;Samples;Min_cycle;Max_cycle;Signal;HPM_P1;HPM_P2
2023/01/24 00:02:17;;;;;;;73.10;35.00;;;0.50;99.90;;;;;;5012055;28;20459;-82
2023/01/24 00:04:43;;;;;;;76.23;35.00;;;0.50;99.90;;;;;;5013015;28;20030;-81
2023/01/24 00:07:08;;;;;;;72.30;33.73;;;0.50;99.90;;;;;;5013609;28;20022;-83
2023/01/24 00:09:34;;;;;;;65.17;32.60;;;0.50;99.90;;;;;;5013973;28;20399;-83
2023/01/24 00:11:59;;;;;;;67.63;32.97;;;0.50;99.90;;;;;;5016609;28;20018;-82
2023/01/24 00:14:25;;;;;;;66.50;34.67;;;0.50;99.90;;;;;;5016637;28;20104;-82
2023/01/24 00:16:50;;;;;;;67.07;31.60;;;0.40;99.90;;;;;;5016277;28;20037;-82
2023/01/24 00:19:18;;;;;;;65.47;31.97;;;0.40;99.90;;;;;;5014957;28;20022;-82
2023/01/24 00:21:44;;;;;;;65.60;32.57;;;0.50;99.90;;;;;;5016572;28;20026;-83
2023/01/24 00:24:09;;;;;;;65.83;32.97;;;0.50;99.90;;;;;;5014883;28;20032;-83
2023/01/24 00:26:35;;;;;;;70.33;34.20;;;0.50;99.90;;;;;;5016246;28;20426;-82
2023/01/24 00:29:00;;;;;;;68.87;34.47;;;0.50;99.90;;;;;;5016587;28;20465;-83
2023/01/24 00:31:26;;;;;;;70.97;33.03;;;0.50;99.90;;;;;;5016138;28;20489;-82
2023/01/24 00:33:51;;;;;;;64.73;32.77;;;0.50;99.90;;;;;;5014901;28;20029;-83
2023/01/24 00:36:17;;;;;;;65.03;32.17;;;0.50;99.90;;;;;;5015950;28;20540;-83
2023/01/24 00:38:42;;;;;;;66.47;30.97;;;0.50;99.90;;;;;;5014555;28;20029;-83
2023/01/24 00:41:08;;;;;;;71.43;32.17;;;0.50;99.90;;;;;;5015913;28;20065;-83
2023/01/24 00:43:34;;;;;;;69.53;33.93;;;0.50;99.90;;;;;;5016047;28;20022;-83
2023/01/24 00:46:00;;;;;;;67.67;33.23;;;0.50;99.90;;;;;;5015753;28;20489;-83
2023/01/24 00:48:26;;;;;;;67.87;33.83;;;0.50;99.90;;;;;;5016048;28;20022;-83
2023/01/24 00:50:52;;;;;;;65.10;32.57;;;0.50;99.90;;;;;;5016169;28;20080;-82
2023/01/24 00:53:19;;;;;;;65.93;32.47;;;0.50;99.90;;;;;;5015908;28;20025;-83
2023/01/24 00:55:46;;;;;;;67.47;32.37;;;0.50;99.90;;;;;;5014291;28;20018;-83
2023/01/24 00:58:12;;;;;;;75.57;34.30;;;0.50;99.90;;;;;;5015604;28;20053;-83
2023/01/24 01:00:38;;;;;;;66.30;31.23;;;0.50;99.90;;;;;;5015814;28;20046;-83
2023/01/24 01:03:05;;;;;;;72.87;33.67;;;0.50;99.90;;;;;;5015756;28;20026;-83
2023/01/24 01:05:31;;;;;;;62.57;30.07;;;0.50;99.90;;;;;;5014676;28;20112;-83
2023/01/24 01:07:56;;;;;;;62.30;30.53;;;0.60;99.90;;;;;;5013920;28;20109;-79
2023/01/24 01:10:22;;;;;;;65.43;31.33;;;0.50;99.90;;;;;;5015303;28;20450;-79
2023/01/24 01:12:48;;;;;;;68.13;31.23;;;0.50;99.90;;;;;;5014160;28;20373;-79
2023/01/24 01:15:13;;;;;;;62.57;30.77;;;0.50;99.90;;;;;;5015284;28;20088;-79
2023/01/24 01:17:39;;;;;;;67.40;32.57;;;0.50;99.90;;;;;;5016105;28;20030;-83
2023/01/24 01:20:05;;;;;;;61.67;30.77;;;0.50;99.90;;;;;;5015782;28;20030;-83
2023/01/24 01:22:30;;;;;;;66.97;32.60;;;0.50;99.90;;;;;;5014985;28;20117;-83
2023/01/24 01:24:56;;;;;;;63.23;30.77;;;0.50;99.90;;;;;;5014300;28;20117;-83
2023/01/24 01:27:21;;;;;;;59.03;29.83;;;0.50;99.90;;;;;;5015636;28;20026;-83
2023/01/24 01:29:47;;;;;;;62.07;30.07;;;0.50;99.90;;;;;;5016154;28;20150;-83
2023/01/24 01:32:13;;;;;;;56.50;28.73;;;0.50;99.90;;;;;;5016548;28;20447;-83
2023/01/24 01:34:38;;;;;;;52.93;26.73;;;0.50;99.90;;;;;;5015399;28;20482;-79
2023/01/24 01:37:04;;;;;;;54.73;28.20;;;0.50;99.90;;;;;;5015120;28;20152;-79
2023/01/24 01:39:29;;;;;;;56.33;28.67;;;0.50;99.90;;;;;;5015042;28;20466;-79
2023/01/24 01:41:55;;;;;;;65.93;32.33;;;0.60;99.90;;;;;;5002169;28;20049;-86
2023/01/24 01:47:31;;;;;;;59.27;29.40;;;0.50;99.90;;;;;;4998217;28;20037;-85
2023/01/24 01:50:14;;;;;;;;;;;0.50;99.90;;;;;;5000196;28;20039;-85
2023/01/24 01:52:42;;;;;;;60.70;29.70;;;0.50;99.90;;;;;;4999434;28;19925;-85
2023/01/24 01:55:15;;;;;;;55.03;28.73;;;0.50;99.90;;;;;;4999381;28;20079;-85
2023/01/24 01:57:42;;;;;;;56.33;29.80;;;0.50;99.90;;;;;;4999738;28;20124;-85
2023/01/24 02:00:12;;;;;;;60.37;29.23;;;0.50;99.90;;;;;;4996840;28;20065;-85
2023/01/24 02:02:41;;;;;;;60.63;30.47;;;0.50;99.90;;;;;;4999591;28;20030;-85
2023/01/24 02:05:09;;;;;;;64.30;30.50;;;0.50;99.90;;;;;;4999710;28;20116;-86
2023/01/24 02:07:43;;;;;;;61.13;28.90;;;0.50;99.90;;;;;;4999772;28;20014;-85
2023/01/24 02:10:10;;;;;;;59.77;29.77;;;0.50;99.90;;;;;;4998448;28;20030;-85
2023/01/24 02:12:47;;;;;;;59.83;30.27;;;0.50;99.90;;;;;;5001366;28;20383;-86
2023/01/24 02:18:03;;;;;;;61.17;30.37;;;0.50;99.90;;;;;;5005891;28;20041;-85
2023/01/24 02:20:37;;;;;;;61.43;31.23;;;0.50;99.90;;;;;;5004980;28;20458;-85
2023/01/24 02:23:18;;;;;;;43.58;21.38;;;0.50;99.90;;;;;;5005392;28;20026;-85
2023/01/24 02:26:14;;;;;;;60.87;29.23;;;0.50;99.90;;;;;;5003065;28;20788;-85
2023/01/24 02:28:47;;;;;;;55.33;29.42;;;0.50;99.90;;;;;;5004938;28;20022;-85
2023/01/24 02:31:12;;;;;;;62.17;30.33;;;0.60;99.90;;;;;;5006228;28;20113;-86
2023/01/24 02:33:38;;;;;;;61.40;29.47;;;0.60;99.90;;;;;;5000125;28;20458;-84
2023/01/24 02:36:30;;;;;;;65.27;30.60;;;0.60;99.90;;;;;;4998555;28;20758;-85
2023/01/24 02:39:11;;;;;;;66.20;32.33;;;0.60;99.90;;;;;;4997299;28;21372;-85
2023/01/24 02:41:48;;;;;;;68.20;31.77;;;0.50;99.90;;;;;;4998215;28;20910;-85
2023/01/24 02:44:19;;;;;;;61.87;30.70;;;0.50;99.90;;;;;;4999373;28;20026;-85
2023/01/24 02:46:45;;;;;;;66.77;31.97;;;0.60;99.90;;;;;;4997765;28;20034;-85
2023/01/24 02:49:11;;;;;;;75.87;33.10;;;0.60;99.90;;;;;;4999241;28;20033;-85
2023/01/24 02:54:21;;;;;;;69.67;31.23;;;0.50;99.90;;;;;;4997160;28;20083;-86
2023/01/24 02:59:31;;;;;;;66.63;31.23;;;0.60;99.90;;;;;;4997987;28;20091;-85
2023/01/24 03:01:57;;;;;;;63.03;29.97;;;0.60;99.90;;;;;;4999257;28;20026;-85
2023/01/24 03:04:22;;;;;;;69.93;32.17;;;0.60;99.90;;;;;;4995773;28;20037;-85
2023/01/24 03:06:51;;;;;;;66.80;30.37;;;0.50;99.90;;;;;;4998395;28;20034;-85
2023/01/24 03:09:19;;;;;;;68.13;30.77;;;0.50;99.90;;;;;;4998084;28;20440;-85
2023/01/24 03:11:46;;;;;;;68.33;30.57;;;0.60;99.90;;;;;;4996387;28;20030;-85
2023/01/24 03:36:06;;;;;;;70.93;31.90;;;0.60;99.90;;;;;;4997308;28;20033;-85
2023/01/24 03:41:16;;;;;;;74.23;32.40;;;0.60;99.90;;;;;;4997758;28;20080;-86
2023/01/24 03:43:43;;;;;;;76.60;33.33;;;0.60;99.90;;;;;;4994974;28;20029;-86
2023/01/24 03:46:09;;;;;;;82.83;35.43;;;0.60;99.90;;;;;;5001949;28;20101;-85
2023/01/24 03:48:36;;;;;;;78.07;33.27;;;0.60;99.90;;;;;;5001745;28;20501;-85
2023/01/24 03:53:47;;;;;;;71.18;32.00;;;0.50;99.90;;;;;;5002118;28;20812;-86
2023/01/24 03:56:12;;;;;;;69.43;31.43;;;0.60;99.90;;;;;;5000884;28;20038;-86
2023/01/24 03:58:38;;;;;;;67.30;32.17;;;0.60;99.90;;;;;;5001122;28;20125;-85
2023/01/24 04:01:04;;;;;;;76.70;33.77;;;0.60;99.90;;;;;;5000270;28;20033;-85
2023/01/24 04:03:32;;;;;;;73.73;33.90;;;0.60;99.90;;;;;;5001553;28;20034;-86
2023/01/24 04:05:58;;;;;;;75.03;33.77;;;0.50;99.90;;;;;;5002089;28;20030;-85
2023/01/24 04:08:23;;;;;;;82.83;33.57;;;0.50;99.90;;;;;;5001605;28;20030;-85
2023/01/24 04:10:49;;;;;;;73.23;34.03;;;0.50;99.90;;;;;;5000632;28;20037;-86
2023/01/24 04:13:14;;;;;;;72.17;32.73;;;0.60;99.90;;;;;;5000947;28;20057;-85
2023/01/24 04:15:40;;;;;;;82.17;34.23;;;0.50;99.90;;;;;;5000947;28;20127;-85
2023/01/24 04:18:06;;;;;;;75.37;32.50;;;0.60;99.90;;;;;;5000646;28;20112;-86
2023/01/24 04:20:35;;;;;;;75.30;33.83;;;0.60;99.90;;;;;;4999733;28;20042;-86
2023/01/24 04:23:05;;;;;;;74.03;32.37;;;0.60;99.90;;;;;;5000327;28;20060;-86
2023/01/24 04:25:31;;;;;;;74.23;32.03;;;0.60;99.90;;;;;;4999591;28;20042;-85
2023/01/24 04:27:57;;;;;;;78.13;34.17;;;0.60;99.90;;;;;;4999936;28;20065;-86
2023/01/24 04:30:23;;;;;;;71.90;33.17;;;0.60;99.90;;;;;;4999014;28;21035;-85
2023/01/24 04:32:48;;;;;;;72.23;32.00;;;0.60;99.90;;;;;;4998792;28;20034;-86
2023/01/24 04:35:25;;;;;;;78.53;34.83;;;0.50;99.90;;;;;;4999454;28;20033;-86
2023/01/24 04:37:51;;;;;;;81.00;35.00;;;0.50;99.90;;;;;;5000492;28;20088;-86
2023/01/24 04:40:17;;;;;;;74.03;33.47;;;0.50;99.90;;;;;;5000484;28;20038;-86
2023/01/24 04:42:42;;;;;;;75.73;31.90;;;0.50;99.90;;;;;;4999556;28;20096;-86
2023/01/24 04:45:09;;;;;;;75.67;32.80;;;0.60;99.90;;;;;;5000267;28;20034;-86
2023/01/24 04:47:35;;;;;;;74.37;32.00;;;0.60;99.90;;;;;;5000662;28;20053;-86
2023/01/24 04:50:00;;;;;;;76.83;32.60;;;0.50;99.90;;;;;;5000880;28;20136;-85
2023/01/24 04:52:26;;;;;;;76.93;32.87;;;0.60;99.90;;;;;;4999761;28;21071;-85
2023/01/24 04:54:52;;;;;;;87.37;33.90;;;0.60;99.90;;;;;;4998300;28;20459;-86
2023/01/24 04:57:18;;;;;;;83.37;34.70;;;0.60;99.90;;;;;;4999470;28;20132;-86
2023/01/24 04:59:44;;;;;;;117.23;44.77;;;0.60;99.90;;;;;;4999533;28;20026;-86
2023/01/24 05:02:09;;;;;;;88.27;37.43;;;0.60;99.90;;;;;;4999068;28;20096;-86
2023/01/24 05:04:35;;;;;;;80.27;32.57;;;0.60;99.90;;;;;;5001133;28;20050;-86
2023/01/24 05:07:01;;;;;;;105.80;37.70;;;0.60;99.90;;;;;;4998710;28;20100;-86
2023/01/24 05:09:27;;;;;;;101.40;40.60;;;0.60;99.90;;;;;;5001349;28;20211;-80
2023/01/24 05:11:52;;;;;;;90.77;36.40;;;0.60;99.90;;;;;;5002450;28;20029;-86
2023/01/24 05:14:18;;;;;;;81.93;32.67;;;0.60;99.90;;;;;;4998565;28;20173;-86
2023/01/24 05:16:43;;;;;;;83.53;34.20;;;0.60;99.90;;;;;;5000022;28;20124;-86
2023/01/24 05:19:09;;;;;;;99.63;48.47;;;0.60;99.90;;;;;;4998697;28;20038;-86
2023/01/24 05:21:37;;;;;;;94.33;45.43;;;0.60;99.90;;;;;;5000756;28;20740;-86
2023/01/24 05:24:03;;;;;;;103.40;41.30;;;0.60;99.90;;;;;;5000870;28;20129;-86
2023/01/24 05:26:29;;;;;;;88.40;39.97;;;0.60;99.90;;;;;;4999185;28;20479;-86
2023/01/24 05:28:55;;;;;;;91.20;35.33;;;0.60;99.90;;;;;;5000211;28;20042;-86
2023/01/24 05:31:21;;;;;;;101.53;38.33;;;0.60;99.90;;;;;;5001491;28;20868;-86
2023/01/24 05:33:47;;;;;;;96.37;36.90;;;0.60;99.90;;;;;;5000554;28;20038;-85
2023/01/24 05:36:16;;;;;;;96.60;36.77;;;0.60;99.90;;;;;;4998692;28;20116;-86
2023/01/24 05:38:42;;;;;;;90.97;36.60;;;0.60;99.90;;;;;;5000516;28;20072;-86
2023/01/24 05:41:10;;;;;;;96.43;37.90;;;0.70;99.90;;;;;;5001035;28;20038;-86
2023/01/24 05:43:36;;;;;;;95.27;37.97;;;0.70;99.90;;;;;;5000514;28;20037;-86
2023/01/24 05:46:07;;;;;;;102.23;44.53;;;0.60;99.90;;;;;;5001652;28;20038;-86
2023/01/24 05:48:33;;;;;;;97.07;41.93;;;0.60;99.90;;;;;;4998626;28;20042;-84
2023/01/24 05:51:00;;;;;;;85.57;37.23;;;0.60;99.90;;;;;;4996173;28;20367;-84
2023/01/24 05:53:27;;;;;;;80.40;35.03;;;0.60;99.90;;;;;;4996312;28;20022;-84
2023/01/24 05:56:01;;;;;;;96.43;43.20;;;0.60;99.90;;;;;;4996375;28;20089;-84
2023/01/24 05:58:28;;;;;;;100.30;42.07;;;0.60;99.90;;;;;;4995880;28;20137;-83
2023/01/24 06:00:54;;;;;;;81.37;35.67;;;0.50;99.90;;;;;;5005262;28;20033;-83
2023/01/24 06:03:21;;;;;;;81.67;35.77;;;0.60;99.90;;;;;;5011095;28;20030;-83
2023/01/24 06:05:47;;;;;;;82.73;35.80;;;0.60;99.90;;;;;;4989064;28;20705;-83
2023/01/24 06:08:14;;;;;;;82.23;37.30;;;0.60;99.90;;;;;;4990427;28;20053;-83
2023/01/24 06:10:39;;;;;;;76.57;35.43;;;0.60;99.90;;;;;;4989708;28;20666;-82
2023/01/24 06:13:05;;;;;;;82.77;36.97;;;0.60;99.90;;;;;;4990752;28;20022;-83
2023/01/24 06:15:30;;;;;;;80.43;35.97;;;0.50;99.90;;;;;;4995010;28;20034;-76
2023/01/24 06:17:56;;;;;;;83.97;33.93;;;0.60;99.90;;;;;;4996302;28;20383;-76
2023/01/24 06:20:21;;;;;;;89.00;36.97;;;0.50;99.90;;;;;;4996034;28;20421;-76
2023/01/24 06:23:04;;;;;;;92.17;38.87;;;0.60;99.90;;;;;;4994614;28;20061;-76
2023/01/24 06:25:30;;;;;;;95.10;37.03;;;0.60;99.90;;;;;;4997840;28;20037;-76
2023/01/24 06:27:56;;;;;;;90.83;36.30;;;0.60;99.90;;;;;;5009106;28;20083;-76
2023/01/24 06:30:22;;;;;;;88.80;37.37;;;0.60;99.90;;;;;;4993242;28;20029;-76
2023/01/24 06:32:47;;;;;;;89.47;36.50;;;0.50;99.90;;;;;;4994917;28;20055;-76
2023/01/24 06:35:49;;;;;;;91.40;36.80;;;0.60;99.90;;;;;;4993512;28;20116;-77
2023/01/24 06:38:23;;;;;;;96.80;37.63;;;0.60;99.90;;;;;;4993858;28;20125;-76
2023/01/24 06:40:55;;;;;;;88.30;37.20;;;0.60;99.90;;;;;;4995389;28;20809;-77
2023/01/24 06:43:21;;;;;;;88.20;35.50;;;0.60;99.90;;;;;;4996063;28;20057;-77
2023/01/24 06:45:47;;;;;;;87.70;35.03;;;0.60;99.90;;;;;;4996757;28;20044;-77
2023/01/24 06:48:12;;;;;;;86.43;34.27;;;0.60;99.90;;;;;;4997162;28;20075;-77
2023/01/24 06:50:38;;;;;;;101.23;39.27;;;0.60;99.90;;;;;;4995787;28;20030;-77
2023/01/24 06:53:04;;;;;;;94.40;36.13;;;0.60;99.90;;;;;;4996186;28;20064;-77
2023/01/24 06:55:30;;;;;;;96.77;38.13;;;0.60;99.90;;;;;;4994558;28;20041;-77
2023/01/24 06:57:57;;;;;;;79.53;34.07;;;0.60;99.90;;;;;;4996959;28;20840;-77
2023/01/24 07:00:24;;;;;;;83.73;34.17;;;0.60;99.90;;;;;;4991771;28;20153;-77
2023/01/24 07:03:06;;;;;;;94.37;35.47;;;0.60;99.90;;;;;;4971673;28;20033;-77
2023/01/24 07:05:32;;;;;;;81.80;32.10;;;0.60;99.90;;;;;;4989644;28;20044;-77
2023/01/24 07:07:58;;;;;;;133.00;55.27;;;0.60;99.90;;;;;;4989789;28;20030;-77
2023/01/24 07:10:24;;;;;;;89.43;36.90;;;0.60;99.90;;;;;;5006103;28;20026;-79
2023/01/24 07:12:54;;;;;;;84.43;34.47;;;0.70;99.90;;;;;;4988002;28;20104;-79
2023/01/24 07:15:20;;;;;;;89.30;35.27;;;0.60;99.90;;;;;;4988558;28;20038;-79
2023/01/24 07:17:46;;;;;;;97.17;36.40;;;0.60;99.90;;;;;;4989326;28;20081;-79
2023/01/24 07:20:12;;;;;;;92.17;35.53;;;0.60;99.90;;;;;;4991513;28;21524;-79
2023/01/24 07:22:40;;;;;;;83.90;34.80;;;0.60;99.90;;;;;;4993559;28;20027;-79
2023/01/24 07:25:16;;;;;;;92.50;37.83;;;0.60;99.90;;;;;;4994815;28;20048;-79
2023/01/24 07:27:43;;;;;;;95.33;38.77;;;0.60;99.90;;;;;;4997777;28;20058;-79
2023/01/24 07:30:10;;;;;;;94.47;38.93;;;0.60;99.90;;;;;;5000263;28;20025;-75
2023/01/24 07:32:36;;;;;;;89.30;36.50;;;0.60;99.90;;;;;;4998892;28;20080;-76
2023/01/24 07:35:02;;;;;;;99.93;38.67;;;0.60;99.90;;;;;;4999440;28;20030;-75
2023/01/24 07:37:27;;;;;;;157.03;60.23;;;0.70;99.90;;;;;;5001508;28;20033;-75
2023/01/24 07:39:52;;;;;;;121.37;45.80;;;0.70;99.90;;;;;;5000128;28;20064;-76
2023/01/24 07:42:18;;;;;;;166.70;59.97;;;0.70;99.90;;;;;;5001473;28;20030;-76
2023/01/24 07:44:44;;;;;;;150.17;55.97;;;0.70;99.90;;;;;;5001411;28;20089;-79
2023/01/24 07:47:09;;;;;;;105.07;40.60;;;0.70;99.90;;;;;;4998962;28;20109;-79
2023/01/24 07:49:35;;;;;;;98.37;39.17;;;0.70;99.90;;;;;;4999922;28;21293;-79
2023/01/24 07:52:00;;;;;;;89.70;36.90;;;0.70;99.90;;;;;;4999339;28;20466;-79
2023/01/24 07:54:26;;;;;;;95.47;42.43;;;0.70;99.90;;;;;;4999640;28;20022;-79
2023/01/24 07:56:51;;;;;;;95.80;40.93;;;0.70;99.90;;;;;;4997019;28;21123;-79
2023/01/24 07:59:17;;;;;;;96.53;39.50;;;0.70;99.90;;;;;;4998381;28;20026;-78
2023/01/24 08:01:42;;;;;;;98.33;39.70;;;0.70;99.90;;;;;;5000261;28;20558;-78
2023/01/24 08:04:09;;;;;;;90.80;34.67;;;0.70;99.90;;;;;;4998398;28;20030;-79
2023/01/24 08:06:35;;;;;;;104.93;45.07;;;0.80;99.90;;;;;;5011292;28;20038;-78
2023/01/24 08:09:01;;;;;;;97.67;42.97;;;0.80;99.90;;;;;;4997327;28;20097;-78
2023/01/24 08:11:26;;;;;;;97.87;42.53;;;0.80;99.90;;;;;;4999279;28;20022;-78
2023/01/24 08:13:52;;;;;;;107.10;43.10;;;0.80;99.90;;;;;;5000343;28;20029;-78
2023/01/24 08:16:18;;;;;;;116.17;51.83;;;0.80;99.90;;;;;;5000217;28;20076;-79
2023/01/24 08:18:44;;;;;;;100.47;39.40;;;0.80;99.90;;;;;;5000415;28;20471;-79
2023/01/24 08:21:09;;;;;;;104.87;43.30;;;0.80;99.90;;;;;;4999857;28;20041;-79
2023/01/24 08:23:35;;;;;;;122.67;49.90;;;0.90;99.90;;;;;;4998083;28;20099;-79
2023/01/24 08:26:01;;;;;;;174.37;78.07;;;0.90;99.90;;;;;;5000996;28;20033;-77
2023/01/24 08:28:29;;;;;;;115.50;46.07;;;0.90;99.90;;;;;;4999572;28;20434;-77
2023/01/24 08:30:57;;;;;;;92.77;36.87;;;0.80;99.90;;;;;;4998008;28;20026;-77
2023/01/24 08:33:22;;;;;;;86.97;34.57;;;0.80;99.90;;;;;;5001008;28;20045;-77
2023/01/24 08:35:48;;;;;;;107.67;50.07;;;0.90;99.90;;;;;;4998875;28;20053;-77
2023/01/24 08:38:15;;;;;;;93.37;41.97;;;0.80;99.90;;;;;;5000958;28;21474;-77
2023/01/24 08:40:42;;;;;;;73.93;34.00;;;0.90;99.90;;;;;;5000140;28;20025;-77
2023/01/24 08:43:08;;;;;;;119.73;58.47;;;0.90;99.90;;;;;;4999162;28;20387;-77
2023/01/24 08:45:34;;;;;;;93.93;41.67;;;0.90;99.90;;;;;;4998049;28;20751;-77
2023/01/24 08:47:59;;;;;;;102.93;50.97;;;0.90;99.90;;;;;;4999277;28;20033;-78
2023/01/24 08:50:25;;;;;;;118.63;54.53;;;0.90;99.90;;;;;;4997894;28;20036;-77
2023/01/24 08:52:57;;;;;;;85.33;37.00;;;0.90;99.90;;;;;;4999120;28;20022;-78
2023/01/24 08:55:24;;;;;;;77.60;32.87;;;1.00;99.90;;;;;;4998676;28;20026;-77
2023/01/24 08:57:49;;;;;;;89.67;40.77;;;1.00;99.90;;;;;;4999174;28;20065;-78
2023/01/24 09:00:16;;;;;;;77.10;34.30;;;1.00;99.90;;;;;;5000546;28;20030;-78
2023/01/24 09:02:41;;;;;;;87.67;35.47;;;1.00;99.90;;;;;;4998975;28;21343;-77
2023/01/24 09:05:08;;;;;;;167.40;66.90;;;1.00;99.90;;;;;;4996104;28;20029;-77
2023/01/24 09:07:40;;;;;;;122.37;48.00;;;1.00;99.90;;;;;;4998567;28;20160;-77
2023/01/24 09:10:06;;;;;;;106.50;40.63;;;1.00;99.90;;;;;;4999236;28;20080;-78
2023/01/24 09:12:31;;;;;;;83.63;37.47;;;1.00;99.90;;;;;;4999221;28;20118;-77
2023/01/24 09:14:57;;;;;;;98.30;42.70;;;1.00;99.90;;;;;;4997481;28;20029;-78
2023/01/24 09:17:23;;;;;;;107.43;51.67;;;1.00;99.90;;;;;;4998650;28;20030;-78
2023/01/24 09:19:49;;;;;;;137.60;66.03;;;1.10;99.90;;;;;;4999261;28;20037;-78
2023/01/24 09:22:15;;;;;;;80.67;37.53;;;1.10;99.90;;;;;;5000060;28;20085;-78
2023/01/24 09:24:40;;;;;;;74.17;32.13;;;1.10;99.90;;;;;;4999102;28;20037;-77
2023/01/24 09:27:06;;;;;;;72.57;32.83;;;1.00;99.90;;;;;;4999274;28;20021;-78
2023/01/24 09:29:31;;;;;;;80.80;31.90;;;1.10;99.90;;;;;;4997523;28;20030;-78
2023/01/24 09:31:57;;;;;;;81.53;34.97;;;1.00;99.90;;;;;;4999397;28;20030;-78
2023/01/24 09:34:22;;;;;;;71.30;31.93;;;1.10;99.90;;;;;;4997820;28;20026;-78
2023/01/24 09:36:49;;;;;;;69.50;33.17;;;1.10;99.90;;;;;;4996968;28;20029;-78
2023/01/24 09:39:15;;;;;;;67.80;30.80;;;1.10;99.90;;;;;;4999790;28;20034;-78
2023/01/24 09:42:12;;;;;;;59.83;29.60;;;1.10;99.90;;;;;;4998508;28;20038;-78
2023/01/24 09:45:01;;;;;;;64.90;30.60;;;1.10;99.90;;;;;;4998323;28;20038;-78
2023/01/24 09:47:45;;;;;;;67.73;32.27;;;1.10;99.90;;;;;;4957567;28;20113;-75
2023/01/24 09:50:17;;;;;;;62.23;30.10;;;1.10;99.90;;;;;;4997636;28;20026;-75
2023/01/24 09:52:46;;;;;;;67.83;30.57;;;1.10;99.90;;;;;;4998787;28;20105;-75
2023/01/24 09:55:30;;;;;;;62.97;30.37;;;1.10;99.90;;;;;;4997586;28;20173;-75
2023/01/24 09:58:01;;;;;;;66.53;31.23;;;1.10;99.90;;;;;;4998540;28;20049;-76
2023/01/24 10:00:34;;;;;;;70.40;32.27;;;1.10;99.90;;;;;;4998336;28;20066;-75
2023/01/24 10:03:01;;;;;;;72.40;30.87;;;1.10;99.90;;;;;;4999385;28;20033;-75
2023/01/24 10:05:38;;;;;;;76.03;33.03;;;1.10;99.90;;;;;;4997999;28;21503;-76
2023/01/24 10:08:37;;;;;;;77.97;32.63;;;1.10;99.90;;;;;;4977508;28;20037;-75
2023/01/24 10:11:29;;;;;;;67.40;30.13;;;1.10;99.90;;;;;;4998701;28;20454;-75
2023/01/24 10:14:01;;;;;;;71.87;32.47;;;1.10;99.90;;;;;;4992337;28;20474;-75
2023/01/24 10:16:38;;;;;;;72.50;31.80;;;1.10;99.90;;;;;;4991738;28;20091;-75
2023/01/24 10:19:25;;;;;;;70.20;31.33;;;1.10;99.90;;;;;;4989430;28;20084;-75
2023/01/24 10:22:19;;;;;;;70.00;32.73;;;1.20;99.90;;;;;;4990960;28;21360;-75
2023/01/24 10:24:54;;;;;;;61.10;30.03;;;1.20;99.90;;;;;;4990059;28;20172;-75
2023/01/24 10:27:34;;;;;;;71.53;31.02;;;1.20;99.90;;;;;;4990992;28;21411;-75
2023/01/24 10:30:14;;;;;;;73.37;30.67;;;1.20;99.90;;;;;;4987544;28;20033;-75
2023/01/24 10:32:43;;;;;;;67.40;30.30;;;1.30;99.90;;;;;;4990002;28;20419;-75
2023/01/24 10:35:21;;;;;;;68.20;30.57;;;1.30;99.90;;;;;;4990314;28;20030;-75
2023/01/24 10:37:55;;;;;;;69.17;29.47;;;1.30;99.90;;;;;;4991831;28;20431;-75
2023/01/24 10:40:24;;;;;;;65.93;29.93;;;1.30;99.90;;;;;;4992205;28;20035;-74
2023/01/24 10:42:50;;;;;;;69.80;31.97;;;1.30;99.90;;;;;;4992455;28;20112;-74
2023/01/24 10:45:45;;;;;;;72.20;32.27;;;1.30;99.90;;;;;;4991979;28;20045;-74
2023/01/24 10:48:35;;;;;;;67.40;30.08;;;1.30;99.90;;;;;;4991318;28;20087;-74
2023/01/24 10:51:16;;;;;;;65.23;30.27;;;1.30;99.90;;;;;;4992843;28;20049;-74
2023/01/24 10:53:43;;;;;;;66.20;31.63;;;1.30;99.90;;;;;;4990984;28;20034;-74
2023/01/24 10:56:09;;;;;;;62.03;30.20;;;1.30;99.90;;;;;;4992162;28;20044;-79
2023/01/24 10:59:03;;;;;;;61.50;29.63;;;1.30;99.90;;;;;;4996847;28;20089;-79
2023/01/24 11:01:36;;;;;;;65.10;30.33;;;1.40;99.90;;;;;;4993813;28;20042;-79
2023/01/24 11:04:19;;;;;;;64.17;29.90;;;1.40;99.90;;;;;;4996293;28;20025;-79
2023/01/24 11:06:49;;;;;;;64.17;29.47;;;1.30;99.90;;;;;;4995935;28;20084;-80
2023/01/24 11:09:21;;;;;;;62.10;32.03;;;1.40;99.90;;;;;;4996032;28;20037;-80
2023/01/24 11:11:50;;;;;;;66.47;30.77;;;1.40;99.90;;;;;;4998185;28;20097;-80
2023/01/24 11:14:20;;;;;;;66.90;32.00;;;1.40;99.90;;;;;;4996624;28;20131;-79
2023/01/24 11:16:48;;;;;;;65.83;30.17;;;1.40;99.90;;;;;;4997927;28;20382;-80
2023/01/24 11:19:38;;;;;;;58.53;28.37;;;1.40;99.90;;;;;;4996900;28;20034;-80
2023/01/24 11:22:21;;;;;;;61.73;28.30;;;1.40;99.90;;;;;;4998373;28;20177;-80
2023/01/24 11:24:47;;;;;;;47.73;25.30;;;1.40;99.90;;;;;;5011865;28;20493;-80
2023/01/24 11:27:15;;;;;;;49.90;25.67;;;1.50;99.90;;;;;;4995067;28;20026;-80
2023/01/24 11:29:41;;;;;;;48.27;25.80;;;1.40;99.90;;;;;;4996494;28;20026;-80
2023/01/24 11:32:19;;;;;;;54.07;27.40;;;1.40;99.90;;;;;;4996529;28;20076;-73
2023/01/24 11:34:53;;;;;;;51.23;24.80;;;1.50;99.90;;;;;;4996647;28;20026;-73
2023/01/24 11:37:49;;;;;;;53.60;26.97;;;1.40;99.90;;;;;;4997069;28;21483;-80
2023/01/24 11:40:36;;;;;;;47.58;22.92;;;1.40;99.90;;;;;;4993895;28;20034;-80
2023/01/24 11:43:39;;;;;;;47.87;24.20;;;1.40;99.90;;;;;;4996491;28;20058;-80
2023/01/24 11:46:21;;;;;;;48.73;24.23;;;1.40;99.90;;;;;;4989647;28;20092;-79
2023/01/24 11:48:54;;;;;;;51.37;25.20;;;1.50;99.90;;;;;;4989532;28;20526;-80
2023/01/24 11:51:39;;;;;;;46.77;24.20;;;1.50;99.90;;;;;;4989736;28;20034;-75
2023/01/24 11:54:20;;;;;;;41.53;23.03;;;1.50;99.90;;;;;;4990452;28;21383;-75
2023/01/24 11:56:59;;;;;;;43.23;24.37;;;1.50;99.90;;;;;;4989012;28;20022;-76
2023/01/24 11:59:41;;;;;;;42.50;23.57;;;1.50;99.90;;;;;;4990685;28;20180;-75
2023/01/24 12:02:18;;;;;;;50.87;27.63;;;1.50;99.90;;;;;;4990934;28;20623;-75
2023/01/24 12:05:22;;;;;;;53.47;30.93;;;1.50;99.90;;;;;;4991563;28;20092;-75
2023/01/24 12:08:13;;;;;;;57.63;31.07;;;1.50;99.90;;;;;;4993883;28;20029;-75
2023/01/24 12:10:54;;;;;;;48.80;27.03;;;1.50;99.90;;;;;;4993714;28;20030;-75
2023/01/24 12:13:36;;;;;;;47.00;25.47;;;1.50;99.90;;;;;;4994573;28;20090;-75
2023/01/24 12:16:10;;;;;;;44.47;24.70;;;1.50;99.90;;;;;;4994428;28;20509;-76
2023/01/24 12:18:52;;;;;;;47.07;25.37;;;1.50;99.90;;;;;;4995454;28;20045;-76
2023/01/24 12:21:17;;;;;;;50.13;25.97;;;1.50;99.90;;;;;;4993072;28;20030;-76
2023/01/24 12:24:05;;;;;;;47.70;25.93;;;1.50;99.90;;;;;;4994989;28;20041;-76
2023/01/24 12:26:37;;;;;;;48.23;26.07;;;1.50;99.90;;;;;;4993939;28;21703;-76
2023/01/24 12:29:24;;;;;;;44.20;25.27;;;1.50;99.90;;;;;;4992656;28;20037;-75
2023/01/24 12:32:17;;;;;;;44.93;25.37;;;1.50;99.90;;;;;;4993583;28;20038;-75
2023/01/24 12:34:51;;;;;;;50.37;26.90;;;1.50;99.90;;;;;;4980814;28;20069;-75
2023/01/24 12:37:31;;;;;;;46.03;25.63;;;1.50;99.90;;;;;;4990995;28;20108;-75
2023/01/24 12:40:12;;;;;;;53.70;25.40;;;1.60;99.90;;;;;;4992642;28;20033;-75
2023/01/24 12:42:48;;;;;;;52.20;25.07;;;1.60;99.90;;;;;;4993184;28;20037;-75
2023/01/24 12:45:40;;;;;;;46.33;25.63;;;1.60;99.90;;;;;;4993881;28;20477;-75
2023/01/24 12:48:33;;;;;;;49.70;26.20;;;1.50;99.90;;;;;;4982135;28;21447;-75
2023/01/24 12:51:21;;;;;;;47.53;25.70;;;1.60;99.90;;;;;;4992551;28;20027;-75
2023/01/24 12:54:20;;;;;;;50.00;25.77;;;1.60;99.90;;;;;;4991231;28;20036;-75
2023/01/24 12:57:04;;;;;;;45.50;24.63;;;1.60;99.90;;;;;;4991884;28;20022;-75
2023/01/24 12:59:33;;;;;;;48.07;26.93;;;1.60;99.90;;;;;;4992826;28;20042;-75
2023/01/24 13:02:17;;;;;;;42.63;25.93;;;1.60;99.90;;;;;;4993089;28;20022;-75
2023/01/24 13:04:58;;;;;;;47.40;25.53;;;1.60;99.90;;;;;;4992573;28;20030;-76
2023/01/24 13:07:58;;;;;;;45.80;25.50;;;1.70;99.90;;;;;;4990039;28;20030;-76
2023/01/24 13:10:43;;;;;;;43.67;24.50;;;1.70;99.90;;;;;;4991828;28;20540;-76
2023/01/24 13:13:53;;;;;;;49.17;26.85;;;1.70;99.90;;;;;;4993471;28;20108;-76
2023/01/24 13:16:19;;;;;;;51.00;26.60;;;1.70;99.90;;;;;;4954313;28;20043;-76
2023/01/24 13:19:15;;;;;;;49.27;26.00;;;1.70;99.90;;;;;;4957071;28;20038;-76
2023/01/24 13:22:25;;;;;;;47.35;25.13;;;1.70;99.90;;;;;;4981180;28;20348;-76
2023/01/24 13:25:25;;;;;;;45.57;23.33;;;1.70;99.90;;;;;;4992299;28;20084;-76
2023/01/24 13:28:06;;;;;;;41.83;23.63;;;1.70;99.90;;;;;;4992396;28;20034;-75
2023/01/24 13:30:31;;;;;;;47.00;25.53;;;1.70;99.90;;;;;;4991456;28;20033;-75
2023/01/24 13:33:03;;;;;;;49.70;26.90;;;1.70;99.90;;;;;;4992515;28;20084;-75
2023/01/24 13:35:28;;;;;;;47.63;26.37;;;1.70;99.90;;;;;;4991410;28;20036;-75